Time;durP1;ratioP1;P1;durP2;ratioP2;P2;SDS_P1;SDS_P2;PMS_P1;PMS_P2;Temp;Humidity;BMP_temperature;BMP_pressure;BME280_temperature;BME280_humidity;BME280_pressure;Samples;Min_cycle;Max_cycle;Signal;HPM_P1;HPM_P2
2023/11/18 00:00:23;;;;;;;4.70;2.40;;;;;;;-145.69;74.40;52396.84;5112995;28;20242;-79
2023/11/18 00:02:50;;;;;;;4.13;2.23;;;;;;;-145.69;74.79;52375.06;5112730;28;20696;-80
2023/11/18 00:05:17;;;;;;;3.83;2.27;;;;;;;-145.69;74.44;52383.00;5109531;28;20198;-79
2023/11/18 00:07:44;;;;;;;3.60;2.23;;;;;;;-145.69;74.46;52392.91;5112578;28;20754;-79
2023/11/18 00:10:12;;;;;;;3.57;2.10;;;;;;;-145.69;74.78;52392.91;5117039;28;20741;-79
2023/11/18 00:12:41;;;;;;;3.70;2.27;;;;;;;-145.69;74.60;52365.16;5117172;28;20201;-80
2023/11/18 00:15:10;;;;;;;2.90;2.10;;;;;;;-145.69;75.13;52388.94;5117318;28;20594;-80
2023/11/18 00:17:37;;;;;;;4.47;2.13;;;;;;;-145.69;74.80;52400.81;5117057;28;20262;-80
2023/11/18 00:20:09;;;;;;;4.13;2.10;;;;;;;-145.69;74.99;52404.78;5117150;28;20204;-79
2023/11/18 00:22:35;;;;;;;3.40;1.90;;;;;;;-145.69;74.81;52390.91;5117114;28;20577;-79
2023/11/18 00:25:04;;;;;;;3.07;1.77;;;;;;;-145.69;75.51;52371.13;5117095;28;20197;-79
2023/11/18 00:27:32;;;;;;;4.03;1.97;;;;;;;-145.69;75.28;52404.78;5116643;28;20212;-79
2023/11/18 00:29:59;;;;;;;2.20;1.60;;;;;;;-145.69;74.99;52404.78;5117075;28;20202;-80
2023/11/18 00:32:25;;;;;;;3.20;1.87;;;;;;;-145.69;74.57;52371.13;5116777;28;20201;-79
2023/11/18 00:34:52;;;;;;;3.37;1.87;;;;;;;-145.69;75.67;52373.09;5116935;28;20232;-79
2023/11/18 00:37:18;;;;;;;3.17;1.90;;;;;;;-145.69;75.48;52377.06;5116745;28;20205;-79
2023/11/18 00:39:45;;;;;;;4.03;2.13;;;;;;;-145.69;75.23;52386.97;5116845;28;20529;-80
2023/11/18 00:42:11;;;;;;;3.50;2.10;;;;;;;-145.69;75.19;52377.06;5116674;28;20194;-79
2023/11/18 00:44:39;;;;;;;2.87;1.70;;;;;;;-145.69;75.15;52416.66;5116426;28;20252;-80
2023/11/18 00:47:05;;;;;;;4.10;2.23;;;;;;;-145.69;75.08;52384.97;5116553;28;20197;-79
2023/11/18 00:49:33;;;;;;;1.73;1.27;;;;;;;-145.69;75.35;52388.94;5116441;28;20204;-79
2023/11/18 00:52:00;;;;;;;2.37;1.50;;;;;;;-145.69;74.18;52377.06;5116449;28;20279;-79
2023/11/18 00:54:27;;;;;;;2.50;1.63;;;;;;;-145.69;74.89;52373.09;5116139;28;20209;-79
2023/11/18 00:56:53;;;;;;;5.07;2.20;;;;;;;-145.69;74.26;52396.84;5116191;28;20650;-80
2023/11/18 00:59:20;;;;;;;2.97;1.70;;;;;;;-145.69;74.39;52377.06;5116343;28;20644;-79
2023/11/18 01:01:48;;;;;;;2.20;1.40;;;;;;;-145.69;74.02;52363.19;5115791;28;20649;-79
2023/11/18 01:04:15;;;;;;;2.63;1.33;;;;;;;-145.69;74.28;52377.06;5115970;28;20682;-79
2023/11/18 01:06:43;;;;;;;1.23;1.13;;;;;;;-145.69;74.83;52388.94;5115928;28;20240;-80
2023/11/18 01:09:09;;;;;;;1.70;1.23;;;;;;;-145.69;74.34;52400.81;5116334;28;20195;-80
2023/11/18 01:11:36;;;;;;;1.90;1.50;;;;;;;-145.69;74.42;52400.81;5115386;28;20194;-79
2023/11/18 01:14:03;;;;;;;1.33;1.23;;;;;;;-145.69;75.51;52416.66;5116117;28;20221;-79
2023/11/18 01:16:29;;;;;;;2.90;1.50;;;;;;;-145.69;74.81;52359.22;5115743;28;20205;-80
2023/11/18 01:18:57;;;;;;;1.70;1.27;;;;;;;-145.69;74.94;52392.91;5116027;28;20208;-80
2023/11/18 01:21:24;;;;;;;2.90;1.33;;;;;;;-145.69;74.98;52408.75;5115633;28;20193;-80
2023/11/18 01:23:50;;;;;;;2.30;1.67;;;;;;;-145.69;75.13;52416.66;5115917;28;20232;-79
2023/11/18 01:26:17;;;;;;;3.40;2.03;;;;;;;-145.69;74.90;52396.84;5115627;28;20197;-79
2023/11/18 01:28:43;;;;;;;1.80;1.50;;;;;;;-145.69;75.14;52386.97;5115622;28;20194;-80
2023/11/18 01:31:10;;;;;;;4.03;1.70;;;;;;;-145.69;74.93;52377.06;5115704;28;20220;-80
2023/11/18 01:33:39;;;;;;;1.73;1.23;;;;;;;-145.69;75.27;52388.94;5115899;28;20202;-79
2023/11/18 01:36:09;;;;;;;1.73;1.40;;;;;;;-145.69;75.05;52367.16;5115526;28;20676;-79
2023/11/18 01:38:35;;;;;;;3.03;1.80;;;;;;;-145.69;74.54;52386.97;5115500;28;20198;-80
2023/11/18 01:41:02;;;;;;;2.57;1.53;;;;;;;-145.69;75.07;52369.13;5115087;28;20190;-80
2023/11/18 01:43:31;;;;;;;2.00;1.47;;;;;;;-145.69;75.06;52379.03;5114863;28;20217;-79
2023/11/18 01:45:58;;;;;;;1.53;1.30;;;;;;;-145.69;75.07;52373.09;5115869;28;20204;-78
2023/11/18 01:48:26;;;;;;;2.60;1.57;;;;;;;-145.69;75.38;52367.16;5115796;28;20212;-79
2023/11/18 01:50:53;;;;;;;1.30;1.10;;;;;;;-145.69;75.40;52416.66;5115329;28;20193;-79
2023/11/18 01:53:21;;;;;;;2.03;1.30;;;;;;;-145.69;75.26;52381.00;5114993;28;20212;-79
2023/11/18 01:55:48;;;;;;;1.63;1.40;;;;;;;-145.69;74.99;52373.09;5115380;28;20197;-79
2023/11/18 01:58:19;;;;;;;2.77;1.67;;;;;;;-145.69;75.07;52371.13;5115259;28;20683;-80
2023/11/18 02:00:47;;;;;;;2.00;1.77;;;;;;;-145.69;74.54;52375.06;5114776;28;20197;-80
2023/11/18 02:03:13;;;;;;;12.13;2.90;;;;;;;-145.69;74.44;52396.84;5115109;28;20218;-79
2023/11/18 02:05:42;;;;;;;3.90;1.60;;;;;;;-145.69;74.65;52390.91;5106248;28;20217;-80
2023/11/18 02:08:09;;;;;;;1.70;1.40;;;;;;;-145.69;74.76;52390.91;5094202;28;20762;-79
2023/11/18 02:10:42;;;;;;;2.50;1.57;;;;;;;-145.69;74.67;52404.78;5096018;28;20209;-80
2023/11/18 02:13:20;;;;;;;1.97;1.50;;;;;;;-145.69;75.21;52390.91;5114432;28;20193;-80
2023/11/18 02:15:46;;;;;;;1.40;1.30;;;;;;;-145.69;74.93;52398.84;5115105;28;20243;-80
2023/11/18 02:18:14;;;;;;;3.80;1.60;;;;;;;-145.69;75.10;52386.97;5114928;28;20202;-80
2023/11/18 02:20:41;;;;;;;1.63;1.30;;;;;;;-145.69;74.79;52428.53;5114857;27;20208;-80
2023/11/18 02:23:08;;;;;;;5.73;1.53;;;;;;;-145.69;74.88;52402.78;5114084;28;20223;-79
2023/11/18 02:25:44;;;;;;;1.30;1.17;;;;;;;-145.69;75.10;52369.13;5114855;28;20205;-80
2023/11/18 02:28:10;;;;;;;2.50;1.37;;;;;;;-145.69;74.98;52379.03;5114767;28;20262;-79
2023/11/18 02:30:37;;;;;;;2.60;1.50;;;;;;;-145.69;74.46;52412.69;5114446;28;20243;-79
2023/11/18 02:33:14;;;;;;;3.10;1.53;;;;;;;-145.69;74.61;52396.84;5113614;28;20205;-80
2023/11/18 02:35:48;;;;;;;2.10;1.60;;;;;;;-145.69;74.65;52384.97;5114842;28;20253;-79
2023/11/18 02:38:19;;;;;;;2.57;1.60;;;;;;;-145.69;74.80;52375.06;5114626;28;20196;-79
2023/11/18 02:40:50;;;;;;;4.10;2.30;;;;;;;-145.69;76.97;52369.13;5113429;28;20427;-79
2023/11/18 02:43:19;;;;;;;2.03;1.50;;;;;;;-145.69;75.28;52392.91;5094026;28;20439;-79
2023/11/18 02:45:46;;;;;;;2.37;1.80;;;;;;;-145.69;75.17;52357.25;5105121;28;20919;-79
2023/11/18 02:48:14;;;;;;;2.70;1.63;;;;;;;-145.69;74.89;52375.06;5114524;28;20202;-79
2023/11/18 02:50:42;;;;;;;2.60;1.53;;;;;;;-145.69;74.92;52398.84;5114579;27;20233;-79
2023/11/18 02:53:10;;;;;;;2.77;1.70;;;;;;;-145.69;75.00;52369.13;5114223;28;20197;-80
2023/11/18 02:55:36;;;;;;;2.27;1.30;;;;;;;-145.69;74.98;52408.75;5113868;28;20198;-80
2023/11/18 02:58:04;;;;;;;1.63;1.30;;;;;;;-145.69;74.87;52369.13;5113899;28;20201;-79
2023/11/18 03:00:30;;;;;;;2.17;1.30;;;;;;;-145.69;74.43;52404.78;5114088;28;20193;-79
2023/11/18 03:02:57;;;;;;;2.40;1.60;;;;;;;-145.69;74.29;52396.84;5113828;28;20217;-79
2023/11/18 03:05:26;;;;;;;3.13;1.40;;;;;;;-145.69;74.61;52404.78;5113974;28;20224;-79
2023/11/18 03:07:54;;;;;;;2.03;1.43;;;;;;;-145.69;74.24;52408.75;5113795;28;20271;-79
2023/11/18 03:10:21;;;;;;;2.00;1.80;;;;;;;-145.69;74.46;52373.09;5113905;28;20204;-79
2023/11/18 03:12:48;;;;;;;2.53;1.67;;;;;;;-145.69;74.81;52384.97;5113386;28;20193;-79
2023/11/18 03:15:17;;;;;;;1.60;1.40;;;;;;;-145.69;74.82;52408.75;5113208;28;20190;-79
2023/11/18 03:17:44;;;;;;;1.43;1.30;;;;;;;-145.69;74.89;52388.94;5113691;28;20202;-79
2023/11/18 03:20:14;;;;;;;2.20;1.67;;;;;;;-145.69;74.70;52418.63;5113840;28;20208;-79
2023/11/18 03:22:40;;;;;;;2.03;1.20;;;;;;;-145.69;75.00;52373.09;5113857;28;20201;-79
2023/11/18 03:25:08;;;;;;;3.33;1.77;;;;;;;-145.69;74.19;52406.75;5113555;28;20242;-79
2023/11/18 03:27:35;;;;;;;2.27;1.70;;;;;;;-145.69;73.72;52390.91;5113721;28;20233;-79
2023/11/18 03:30:01;;;;;;;2.57;1.90;;;;;;;-145.69;73.53;52416.66;5113522;28;20208;-79
2023/11/18 03:32:29;;;;;;;4.00;1.80;;;;;;;-145.69;73.26;52404.78;5113473;28;20201;-79
2023/11/18 03:34:57;;;;;;;5.43;2.13;;;;;;;-145.69;73.10;52394.88;5113349;28;20200;-79
2023/11/18 03:37:24;;;;;;;1.70;1.30;;;;;;;-145.69;72.93;52404.78;5113708;28;20201;-79
2023/11/18 03:39:50;;;;;;;3.00;1.50;;;;;;;-145.69;73.13;52390.91;5113094;28;20204;-79
2023/11/18 03:42:16;;;;;;;2.37;1.60;;;;;;;-145.69;72.79;52383.00;5112865;28;20201;-79
2023/11/18 03:44:43;;;;;;;2.83;1.80;;;;;;;-145.69;73.01;52440.44;5113021;28;20224;-79
2023/11/18 03:47:10;;;;;;;5.17;1.90;;;;;;;-145.69;72.09;52396.84;5113555;28;20672;-79
2023/11/18 03:49:38;;;;;;;1.50;1.27;;;;;;;-145.69;72.12;52404.78;5113523;28;20251;-79
2023/11/18 03:52:05;;;;;;;1.73;1.57;;;;;;;-145.69;72.45;52384.97;5113081;28;20193;-79
2023/11/18 03:54:32;;;;;;;1.50;1.40;;;;;;;-145.69;72.46;52402.78;5113297;28;20201;-79
2023/11/18 03:56:59;;;;;;;1.73;1.40;;;;;;;-145.69;71.60;52396.84;5112965;28;20200;-79
2023/11/18 03:59:25;;;;;;;1.60;1.43;;;;;;;-145.69;71.85;52412.69;5113404;28;20231;-79
2023/11/18 04:01:52;;;;;;;2.10;1.40;;;;;;;-145.69;71.47;52392.91;5107029;28;20193;-79
2023/11/18 04:04:19;;;;;;;2.93;1.40;;;;;;;-145.69;71.41;52396.84;5113040;28;20255;-79
2023/11/18 04:06:47;;;;;;;1.20;1.10;;;;;;;-145.69;71.06;52408.75;5113044;28;20240;-80
2023/11/18 04:09:14;;;;;;;3.30;1.33;;;;;;;-145.69;71.63;52426.56;5113510;28;20593;-79
2023/11/18 04:11:41;;;;;;;2.07;0.90;;;;;;;-145.69;70.92;52420.63;5112651;28;20723;-79
2023/11/18 04:14:07;;;;;;;0.80;0.80;;;;;;;-145.69;71.42;52424.59;5112963;28;20256;-79
2023/11/18 04:16:34;;;;;;;1.47;1.17;;;;;;;-145.69;71.58;52416.66;5112836;28;20201;-79
2023/11/18 04:19:00;;;;;;;1.10;1.00;;;;;;;-145.69;71.62;52426.56;5112864;28;20244;-79
2023/11/18 04:21:27;;;;;;;5.50;1.50;;;;;;;-145.69;72.95;52422.59;5112647;28;20201;-79
2023/11/18 04:23:54;;;;;;;1.93;1.40;;;;;;;-145.69;72.13;52446.38;5113154;28;20193;-79
2023/11/18 04:26:21;;;;;;;1.30;1.20;;;;;;;-145.69;72.58;52432.50;5113114;28;20237;-79
2023/11/18 04:28:47;;;;;;;2.07;1.40;;;;;;;-145.69;72.34;52424.59;5112847;28;20197;-79
2023/11/18 04:31:14;;;;;;;1.90;1.40;;;;;;;-145.69;72.16;52426.56;5112496;28;20201;-79
2023/11/18 04:33:40;;;;;;;2.67;1.43;;;;;;;-145.69;72.49;52406.75;5112790;28;20209;-79
2023/11/18 04:36:09;;;;;;;1.60;1.13;;;;;;;-145.69;72.20;52404.78;5112920;28;20204;-79
2023/11/18 04:38:36;;;;;;;1.63;1.27;;;;;;;-145.69;72.26;52392.91;5112561;28;20664;-79
2023/11/18 04:41:06;;;;;;;2.43;1.50;;;;;;;-145.69;72.07;52446.38;5113074;28;20201;-79
2023/11/18 04:43:33;;;;;;;3.93;1.43;;;;;;;-145.69;71.93;52408.75;5112729;28;20197;-79
2023/11/18 04:46:00;;;;;;;2.67;1.47;;;;;;;-145.69;72.17;52404.78;5112643;28;20229;-79
2023/11/18 04:48:26;;;;;;;2.73;1.33;;;;;;;-145.69;72.58;52408.75;5112626;28;20202;-79
2023/11/18 04:50:53;;;;;;;4.03;1.47;;;;;;;-145.69;72.77;52420.63;5112394;28;20196;-79
2023/11/18 04:53:19;;;;;;;1.97;1.47;;;;;;;-145.69;72.45;52440.44;5112080;28;20194;-79
2023/11/18 04:55:45;;;;;;;2.27;1.70;;;;;;;-145.69;72.60;52412.69;5115542;28;20224;-78
2023/11/18 04:58:13;;;;;;;2.87;1.27;;;;;;;-145.69;72.49;52440.44;5116530;28;20205;-78
2023/11/18 05:00:41;;;;;;;2.53;1.87;;;;;;;-145.69;73.35;52450.31;5116255;28;20525;-78
2023/11/18 05:03:09;;;;;;;3.53;1.87;;;;;;;-145.69;72.93;52424.59;5115674;28;20282;-79
2023/11/18 05:05:37;;;;;;;2.00;1.30;;;;;;;-145.69;72.93;52398.84;5116097;28;20228;-79
2023/11/18 05:08:06;;;;;;;2.17;1.77;;;;;;;-145.69;72.55;52404.78;5116206;28;20229;-79
2023/11/18 05:10:32;;;;;;;5.30;1.90;;;;;;;-145.69;72.01;52420.63;5116591;28;20197;-79
2023/11/18 05:12:59;;;;;;;3.47;1.83;;;;;;;-145.69;71.59;52430.53;5115404;28;20200;-79
2023/11/18 05:15:30;;;;;;;3.83;1.97;;;;;;;-145.69;71.42;52418.63;5115456;28;20289;-79
2023/11/18 05:17:56;;;;;;;2.50;1.90;;;;;;;-145.69;71.62;52396.84;5116171;28;20621;-79
2023/11/18 05:20:23;;;;;;;2.90;1.70;;;;;;;-145.69;71.03;52408.75;5115858;28;20205;-79
2023/11/18 05:22:49;;;;;;;2.17;1.70;;;;;;;-145.69;71.66;52432.50;5115491;28;20225;-79
2023/11/18 05:25:16;;;;;;;1.63;1.40;;;;;;;-145.69;71.60;52448.34;5115656;28;20684;-79
2023/11/18 05:27:43;;;;;;;4.00;1.60;;;;;;;-145.69;71.58;52448.34;5115845;28;20202;-79
2023/11/18 05:30:10;;;;;;;3.77;2.20;;;;;;;-145.69;71.36;52420.63;5115946;28;20204;-79
2023/11/18 05:32:38;;;;;;;4.80;2.10;;;;;;;-145.69;71.82;52444.38;5114986;28;20193;-79
2023/11/18 05:35:06;;;;;;;3.23;1.87;;;;;;;-145.69;72.25;52458.25;5115013;28;20225;-79
2023/11/18 05:37:35;;;;;;;2.90;2.03;;;;;;;-145.69;72.29;52404.78;5115804;28;20242;-79
2023/11/18 05:40:06;;;;;;;4.43;2.20;;;;;;;-145.69;72.49;52444.38;5115385;28;20254;-80
2023/11/18 05:42:33;;;;;;;4.20;1.70;;;;;;;-145.69;72.09;52428.53;5115677;28;20189;-80
2023/11/18 05:44:59;;;;;;;3.57;2.40;;;;;;;-145.69;71.99;52410.72;5115422;28;20224;-79
2023/11/18 05:47:26;;;;;;;3.23;2.10;;;;;;;-145.69;71.74;52448.34;5115360;28;20556;-79
2023/11/18 05:49:54;;;;;;;3.67;2.30;;;;;;;-145.69;72.26;52432.50;5115186;28;20250;-79
2023/11/18 05:52:22;;;;;;;4.97;2.67;;;;;;;-145.69;71.45;52420.63;5115173;28;20194;-78
2023/11/18 05:54:48;;;;;;;4.43;2.37;;;;;;;-145.69;71.85;52444.38;5109313;28;20194;-79
2023/11/18 05:57:16;;;;;;;4.27;2.30;;;;;;;-145.69;71.61;52448.34;5094708;28;20210;-79
2023/11/18 05:59:42;;;;;;;7.47;2.30;;;;;;;-145.69;71.57;52450.31;5095234;28;20256;-79
2023/11/18 06:02:12;;;;;;;5.60;2.63;;;;;;;-145.69;72.33;52420.63;5100922;28;20190;-79
2023/11/18 06:04:39;;;;;;;7.13;2.50;;;;;;;-145.69;72.69;52426.56;5114928;28;20228;-80
2023/11/18 06:07:07;;;;;;;7.07;2.87;;;;;;;-145.69;71.75;52402.78;5113890;28;20229;-79
2023/11/18 06:09:33;;;;;;;5.43;2.87;;;;;;;-145.69;71.50;52454.28;5115327;28;20198;-79
2023/11/18 06:12:00;;;;;;;4.87;2.63;;;;;;;-145.69;71.78;52396.84;5114920;28;20660;-79
2023/11/18 06:14:27;;;;;;;4.73;2.20;;;;;;;-145.69;71.74;52444.38;5115178;28;20609;-79
2023/11/18 06:16:53;;;;;;;3.90;2.60;;;;;;;-145.69;72.20;52424.59;5114793;28;20556;-78
2023/11/18 06:19:20;;;;;;;4.90;2.60;;;;;;;-145.69;72.76;52448.34;5114887;28;20197;-79
2023/11/18 06:21:47;;;;;;;4.53;2.67;;;;;;;-145.69;71.87;52466.16;5114617;28;20282;-79
2023/11/18 06:24:17;;;;;;;4.83;2.20;;;;;;;-145.69;72.26;52464.19;5114649;28;20202;-79
2023/11/18 06:26:44;;;;;;;3.70;2.40;;;;;;;-145.69;72.46;52440.44;5114875;28;20288;-78
2023/11/18 06:29:11;;;;;;;3.70;2.23;;;;;;;-145.69;72.30;52458.25;5114735;28;20200;-79
2023/11/18 06:31:37;;;;;;;5.37;3.00;;;;;;;-145.69;73.03;52400.81;5114415;28;20284;-79
2023/11/18 06:34:04;;;;;;;5.63;2.70;;;;;;;-145.69;73.59;52434.47;5114353;28;20197;-79
2023/11/18 06:36:31;;;;;;;5.63;2.73;;;;;;;-145.69;72.76;52446.38;5114379;28;20235;-79
2023/11/18 06:38:58;;;;;;;5.17;2.97;;;;;;;-145.69;73.33;52452.31;5114721;28;20199;-79
2023/11/18 06:41:33;;;;;;;5.17;2.97;;;;;;;-145.69;73.50;52452.31;5114732;28;20638;-79
2023/11/18 06:44:01;;;;;;;5.10;2.73;;;;;;;-145.69;73.73;52434.47;5114134;28;20199;-79
2023/11/18 06:46:31;;;;;;;8.13;4.38;;;;;;;-145.69;75.01;52432.50;5112954;28;20994;-79
2023/11/18 06:48:59;;;;;;;5.27;2.90;;;;;;;-145.69;73.44;52428.53;5114609;28;20205;-78
2023/11/18 06:51:28;;;;;;;7.47;2.80;;;;;;;-145.69;73.50;52434.47;5114332;28;20205;-79
2023/11/18 06:53:55;;;;;;;4.43;2.30;;;;;;;-145.69;73.55;52412.69;5113530;28;20288;-79
2023/11/18 06:56:22;;;;;;;3.77;2.33;;;;;;;-145.69;72.92;52428.53;5114455;28;20212;-79
2023/11/18 06:58:50;;;;;;;3.23;2.23;;;;;;;-145.69;72.78;52408.75;5114237;28;20204;-79
2023/11/18 07:01:17;;;;;;;3.67;2.40;;;;;;;-145.69;72.96;52430.53;5113496;28;20201;-80
2023/11/18 07:03:43;;;;;;;4.73;2.40;;;;;;;-145.69;73.08;52408.75;5113956;28;20197;-79
2023/11/18 07:06:10;;;;;;;10.40;2.67;;;;;;;-145.69;72.66;52440.44;5114033;28;20241;-79
2023/11/18 07:08:37;;;;;;;3.97;2.30;;;;;;;-145.69;73.20;52402.78;5113944;28;20686;-79
2023/11/18 07:11:05;;;;;;;4.10;2.17;;;;;;;-145.69;72.99;52426.56;5113173;28;20288;-79
2023/11/18 07:13:33;;;;;;;3.60;2.13;;;;;;;-145.69;72.96;52438.44;5113439;28;20209;-80
2023/11/18 07:16:03;;;;;;;4.07;2.30;;;;;;;-145.69;73.19;52420.63;5113499;28;20211;-79
2023/11/18 07:18:31;;;;;;;3.30;2.23;;;;;;;-145.69;73.33;52452.31;5113189;28;20571;-79
2023/11/18 07:20:58;;;;;;;3.57;2.47;;;;;;;-145.69;73.28;52377.06;5113820;28;20266;-79
2023/11/18 07:23:24;;;;;;;3.27;2.30;;;;;;;-145.69;72.96;52448.34;5113713;28;20549;-79
2023/11/18 07:25:51;;;;;;;3.60;2.43;;;;;;;-145.69;72.51;52456.28;5113660;28;20225;-79
2023/11/18 07:28:17;;;;;;;3.53;2.17;;;;;;;-145.69;72.32;52444.38;5113327;28;20197;-79
2023/11/18 07:30:47;;;;;;;3.20;2.30;;;;;;;-145.69;73.12;52392.91;5113087;28;20591;-80
2023/11/18 07:33:14;;;;;;;5.30;2.77;;;;;;;-145.69;73.13;52440.44;5112669;28;20200;-79
2023/11/18 07:35:41;;;;;;;4.93;2.80;;;;;;;-145.69;73.38;52418.63;5113667;28;20219;-79
2023/11/18 07:38:09;;;;;;;5.27;2.40;;;;;;;-145.69;73.44;52412.69;5112996;28;20616;-79
2023/11/18 07:40:37;;;;;;;4.47;2.70;;;;;;;-145.69;73.25;52404.78;5113591;28;20219;-79
2023/11/18 07:43:04;;;;;;;4.47;2.30;;;;;;;-145.69;73.80;52408.75;5113190;28;20225;-79
2023/11/18 07:45:37;;;;;;;5.80;3.20;;;;;;;-145.69;73.50;52402.78;5113252;28;20250;-80
2023/11/18 07:48:06;;;;;;;9.35;3.72;;;;;;;-145.69;74.66;52426.56;5112805;28;20431;-79
2023/11/18 07:50:34;;;;;;;7.83;3.10;;;;;;;-145.69;74.58;52400.81;5113590;28;20292;-79
2023/11/18 07:53:01;;;;;;;5.27;2.93;;;;;;;-145.69;73.69;52396.84;5112843;28;20209;-79
2023/11/18 07:55:28;;;;;;;4.97;2.77;;;;;;;-145.69;73.77;52448.34;5113188;28;20201;-78
2023/11/18 07:57:54;;;;;;;5.67;2.60;;;;;;;-145.69;73.34;52392.91;5113339;28;20590;-78
2023/11/18 08:00:21;;;;;;;5.20;2.77;;;;;;;-145.69;73.55;52440.44;5116349;28;20221;-79
2023/11/18 08:02:48;;;;;;;5.60;2.80;;;;;;;-145.69;73.36;52426.56;5110960;28;20198;-79
2023/11/18 08:05:15;;;;;;;6.07;2.97;;;;;;;-145.69;73.86;52422.59;5092801;28;20278;-78
2023/11/18 08:07:43;;;;;;;9.43;2.87;;;;;;;-145.69;72.75;52420.63;5092665;28;20232;-79
2023/11/18 08:10:12;;;;;;;5.67;2.70;;;;;;;-145.69;73.58;52434.47;5092771;28;20198;-79
2023/11/18 08:12:39;;;;;;;4.63;2.77;;;;;;;-145.69;73.87;52404.78;5099213;28;20197;-78
2023/11/18 08:15:09;;;;;;;5.77;2.90;;;;;;;-145.69;73.72;52345.38;5113365;28;20208;-79
2023/11/18 08:17:35;;;;;;;7.77;3.43;;;;;;;-145.69;73.38;52404.78;5112961;28;20201;-78
2023/11/18 08:20:06;;;;;;;7.17;3.00;;;;;;;-145.69;74.07;52408.75;5112912;28;20197;-78
2023/11/18 08:22:34;;;;;;;7.90;3.00;;;;;;;-145.69;73.19;52398.84;5112624;28;20193;-78
2023/11/18 08:25:02;;;;;;;7.57;3.27;;;;;;;-145.69;72.90;52408.75;5113491;28;20231;-78
2023/11/18 08:27:28;;;;;;;6.23;3.33;;;;;;;-145.69;74.31;52381.00;5112704;28;20197;-78
2023/11/18 08:29:54;;;;;;;6.60;3.03;;;;;;;-145.69;73.77;52408.75;5114507;28;20208;-77
2023/11/18 08:32:22;;;;;;;5.70;3.13;;;;;;;-145.69;75.00;52432.50;5116302;27;20193;-78
2023/11/18 08:34:51;;;;;;;7.47;3.20;;;;;;;-145.69;72.40;52396.84;5116614;28;20193;-78
2023/11/18 08:37:17;;;;;;;9.13;2.63;;;;;;;-145.69;73.51;52390.91;5117303;28;20212;-78
2023/11/18 08:39:44;;;;;;;3.93;2.80;;;;;;;-145.69;73.38;52375.06;5116905;28;20204;-78
2023/11/18 08:42:13;;;;;;;4.90;3.30;;;;;;;-145.69;73.00;52369.13;5116475;28;20198;-78
2023/11/18 08:44:40;;;;;;;5.57;2.60;;;;;;;-145.69;74.10;52404.78;5116249;28;20670;-79
2023/11/18 08:47:08;;;;;;;6.03;3.10;;;;;;;-145.69;73.74;52412.69;5116513;28;20225;-78
2023/11/18 08:49:35;;;;;;;4.23;2.80;;;;;;;-145.69;72.27;52377.06;5116724;28;20296;-78
2023/11/18 08:52:01;;;;;;;7.10;2.80;;;;;;;-145.69;73.45;52390.91;5116220;28;20209;-79
2023/11/18 08:54:37;;;;;;;5.83;2.90;;;;;;;-145.69;72.86;52410.72;5116539;28;20193;-78
2023/11/18 08:57:19;;;;;;;3.73;2.77;;;;;;;-145.69;74.32;52383.00;5116751;28;20197;-78
2023/11/18 08:59:47;;;;;;;6.43;2.73;;;;;;;-145.69;73.31;52392.91;5116627;28;20197;-78
2023/11/18 09:02:15;;;;;;;5.80;2.57;;;;;;;-145.69;73.08;52386.97;5115461;28;20556;-77
2023/11/18 09:04:42;;;;;;;7.13;2.90;;;;;;;-145.69;71.95;52388.94;5116002;28;20656;-77
2023/11/18 09:07:09;;;;;;;3.57;2.33;;;;;;;-145.69;73.24;52390.91;5116080;28;20241;-78
2023/11/18 09:09:36;;;;;;;4.20;2.67;;;;;;;-145.69;73.84;52373.09;5116453;28;20229;-78
2023/11/18 09:12:03;;;;;;;6.33;3.00;;;;;;;-145.69;71.35;52381.00;5116240;28;20212;-78
2023/11/18 09:14:31;;;;;;;4.17;2.60;;;;;;;-145.69;72.26;52361.22;5115925;27;20198;-78
2023/11/18 09:16:58;;;;;;;4.23;2.37;;;;;;;-145.69;73.00;52335.47;5115788;28;20205;-78
2023/11/18 09:19:25;;;;;;;4.87;2.90;;;;;;;-145.69;69.75;52361.22;5115217;28;20219;-78
2023/11/18 09:21:52;;;;;;;3.80;2.23;;;;;;;-145.69;70.90;52390.91;5116115;28;20208;-77
2023/11/18 09:24:19;;;;;;;3.83;2.30;;;;;;;-145.69;72.31;52357.25;5115775;28;20672;-78
2023/11/18 09:26:47;;;;;;;3.73;2.60;;;;;;;-145.69;72.54;52351.31;5115944;28;20225;-78
2023/11/18 09:29:17;;;;;;;3.13;2.07;;;;;;;-145.69;72.36;52329.53;5115802;28;20682;-78
2023/11/18 09:31:47;;;;;;;3.40;2.00;;;;;;;-145.69;73.22;52353.28;5115624;28;20201;-79
2023/11/18 09:34:16;;;;;;;3.73;2.40;;;;;;;-145.69;73.83;52373.09;5129085;27;20203;-79
2023/11/18 09:36:44;;;;;;;6.43;2.43;;;;;;;-145.69;73.10;52321.59;5123744;27;20213;-78
2023/11/18 09:39:16;;;;;;;4.03;2.10;;;;;;;-145.69;72.72;52371.13;5115447;28;20221;-78
2023/11/18 09:41:43;;;;;;;3.73;2.30;;;;;;;-145.69;73.64;52361.22;5115080;28;20198;-78
2023/11/18 09:44:12;;;;;;;8.43;2.10;;;;;;;-145.69;71.70;52359.22;5115096;28;20238;-78
2023/11/18 09:46:43;;;;;;;3.60;1.70;;;;;;;-145.69;70.90;52333.47;5114832;28;20229;-78
2023/11/18 09:49:25;;;;;;;4.70;2.43;;;;;;;-145.69;71.82;52333.47;5115552;27;20202;-78
2023/11/18 09:51:57;;;;;;;4.33;2.10;;;;;;;-145.69;73.00;52349.31;5115224;28;20206;-78
2023/11/18 09:54:32;;;;;;;3.77;2.00;;;;;;;-145.69;73.47;52335.47;5114874;28;20208;-78
2023/11/18 09:57:08;;;;;;;3.90;1.70;;;;;;;-145.69;70.03;52333.47;5114550;28;20666;-78
2023/11/18 09:59:44;;;;;;;1.97;1.40;;;;;;;-145.69;72.71;52339.44;5115279;28;20229;-78
2023/11/18 10:02:11;;;;;;;3.43;1.30;;;;;;;-145.69;73.67;52305.75;5114966;28;20193;-79
2023/11/18 10:04:40;;;;;;;2.20;1.57;;;;;;;-145.69;74.49;52299.81;5110084;28;20200;-78
2023/11/18 10:07:07;;;;;;;3.27;1.57;;;;;;;-145.69;72.84;52337.44;5103923;28;20268;-78
2023/11/18 10:09:37;;;;;;;2.53;1.50;;;;;;;-145.69;73.46;52349.31;5114324;28;20263;-78
2023/11/18 10:12:06;;;;;;;2.10;0.93;;;;;;;-145.69;74.26;52321.59;5114623;28;20201;-79
2023/11/18 10:14:33;;;;;;;2.90;1.10;;;;;;;-145.69;73.21;52351.31;5114323;28;20598;-79
2023/11/18 10:17:00;;;;;;;1.60;1.07;;;;;;;-145.69;72.98;52321.59;5114586;28;20197;-78
2023/11/18 10:19:26;;;;;;;3.33;1.40;;;;;;;-145.69;70.73;52365.16;5114808;28;20197;-78
2023/11/18 10:21:56;;;;;;;2.23;1.10;;;;;;;-145.69;71.93;52325.56;5114286;28;20204;-78
2023/11/18 10:24:24;;;;;;;1.10;0.90;;;;;;;-145.69;73.87;52343.38;5114648;28;20193;-78
2023/11/18 10:26:57;;;;;;;2.67;1.70;;;;;;;-145.69;72.32;52325.56;5114664;28;20317;-79
2023/11/18 10:29:27;;;;;;;3.20;1.33;;;;;;;-145.69;72.07;52325.56;5114137;28;20197;-78
2023/11/18 10:32:07;;;;;;;1.73;1.00;;;;;;;-145.69;71.62;52305.75;5114245;28;20702;-78
2023/11/18 10:34:35;;;;;;;3.50;1.10;;;;;;;-145.69;71.94;52309.72;5113970;28;20251;-79
2023/11/18 10:37:03;;;;;;;2.13;1.00;;;;;;;-145.69;73.36;52315.66;5113617;28;20439;-79
2023/11/18 10:39:32;;;;;;;1.87;0.90;;;;;;;-145.69;72.46;52327.53;5114629;28;20201;-79
2023/11/18 10:42:00;;;;;;;2.07;0.90;;;;;;;-145.69;68.51;52321.59;5114192;28;20201;-79
2023/11/18 10:44:26;;;;;;;0.97;0.80;;;;;;;-145.69;71.54;52349.31;5113939;28;20737;-79
2023/11/18 10:46:53;;;;;;;4.03;1.40;;;;;;;-145.69;71.00;52329.53;5113757;28;20228;-79
2023/11/18 10:49:21;;;;;;;2.30;1.30;;;;;;;-145.69;71.03;52274.06;5114385;28;20254;-79
2023/11/18 10:51:48;;;;;;;2.70;1.33;;;;;;;-145.69;70.48;52321.59;5112676;28;20682;-79
2023/11/18 10:54:17;;;;;;;2.05;1.30;;;;;;;-145.69;71.15;52303.78;5113827;28;20250;-79
2023/11/18 10:56:47;;;;;;;2.30;1.35;;;;;;;-145.69;64.41;52319.63;5114053;28;20202;-79
2023/11/18 10:59:16;;;;;;;3.40;1.60;;;;;;;-145.69;65.39;52309.72;5114149;28;20213;-79
2023/11/18 11:01:43;;;;;;;3.40;1.52;;;;;;;-145.69;67.44;52329.53;5114286;28;20210;-79
2023/11/18 11:04:10;;;;;;;2.90;1.53;;;;;;;-145.69;67.55;52287.94;5113771;28;20193;-79
2023/11/18 11:06:42;;;;;;;6.00;1.30;;;;;;;-145.69;65.89;52297.84;5113527;28;20260;-79
2023/11/18 11:09:16;;;;;;;3.53;1.37;;;;;;;-145.69;66.19;52347.34;5113623;28;20193;-79
2023/11/18 11:11:49;;;;;;;3.17;1.42;;;;;;;-145.69;68.02;52293.88;5113913;28;20297;-79
2023/11/18 11:14:17;;;;;;;4.10;1.37;;;;;;;-145.69;63.36;52317.66;5112090;28;20193;-80
2023/11/18 11:16:53;;;;;;;3.67;1.60;;;;;;;-145.69;67.55;52283.97;5113986;28;20245;-79
2023/11/18 11:19:27;;;;;;;3.28;1.33;;;;;;;-145.69;65.18;52307.75;5113794;28;20232;-80